| time (UTC) | temp C | wind direction | speed KPH | gust KPH | rain 1hr cm | rain 24hr cm | rain mn cm | humidity % | barometer mb |
| 20260503140233 | 20 | 239 | 3.2 | 17.7 | 0.00 | 0.00 | 0.00 | 70 | 1018.5 |
| 20260503131203 | 18 | 34 | 11.3 | 19.3 | 0.00 | 0.00 | 0.00 | 80 | 1018.2 |
| 20260503130700 | 18 | 22 | 8.0 | 19.3 | 0.00 | 0.00 | 0.00 | 82 | 1018.1 |
| 20260503130158 | 18 | 20 | 9.7 | 16.1 | 0.00 | 0.00 | 0.00 | 83 | 1018.1 |
| 20260503120123 | 15 | 5 | 4.8 | 8.0 | 0.00 | 0.00 | 0.00 | 97 | 1017.6 |
| 20260503110550 | 15 | 5 | 3.2 | 8.0 | 0.00 | 0.00 | 0.00 | 99 | 1017.4 |
| 20260503090437 | 15 | 4 | 4.8 | 6.4 | 0.00 | 0.00 | 0.00 | 97 | 1016.1 |
| 20260503081359 | 15 | 7 | 4.8 | 9.7 | 0.00 | 0.00 | 0.00 | 94 | 1016.0 |
| 20260503080856 | 15 | 55 | 1.6 | 6.4 | 0.00 | 0.00 | 0.00 | 94 | 1015.8 |
| 20260503080352 | 15 | 11 | 4.8 | 6.4 | 0.00 | 0.00 | 0.00 | 93 | 1016.1 |
| 20260503072828 | 16 | 13 | 8.0 | 9.7 | 0.00 | 0.00 | 0.00 | 92 | 1015.8 |
| 20260503072325 | 16 | 356 | 6.4 | 9.7 | 0.00 | 0.00 | 0.00 | 92 | 1015.7 |
| 20260503071821 | 16 | 60 | 3.2 | 8.0 | 0.00 | 0.00 | 0.00 | 92 | 1015.7 |
| 20260503071319 | 16 | 18 | 3.2 | 17.7 | 0.00 | 0.00 | 0.00 | 91 | 1015.4 |
| 20260503070815 | 16 | 43 | 4.8 | 9.7 | 0.00 | 0.00 | 0.00 | 91 | 1015.6 |
| 20260503070313 | 16 | 10 | 4.8 | 6.4 | 0.00 | 0.00 | 0.00 | 91 | 1015.6 |
| 20260503060232 | 17 | 356 | 11.3 | 12.9 | 0.00 | 0.00 | 0.00 | 93 | 1016.1 |
| 20260503054719 | 17 | 3 | 4.8 | 8.0 | 0.00 | 0.00 | 0.00 | 92 | 1016.1 |
| 20260503054216 | 17 | 355 | 4.8 | 11.3 | 0.00 | 0.00 | 0.00 | 92 | 1016.0 |
| 20260503053714 | 17 | 21 | 6.4 | 6.4 | 0.00 | 0.00 | 0.00 | 91 | 1016.1 |
| 20260503053213 | 17 | 15 | 6.4 | 11.3 | 0.00 | 0.00 | 0.00 | 91 | 1016.0 |
| 20260503052708 | 17 | 29 | 3.2 | 6.4 | 0.00 | 0.00 | 0.00 | 91 | 1016.1 |
| 20260503052205 | 17 | 11 | 6.4 | 9.7 | 0.00 | 0.00 | 0.00 | 91 | 1015.9 |
| 20260503051700 | 17 | 353 | 8.0 | 9.7 | 0.00 | 0.00 | 0.00 | 91 | 1015.9 |
| 20260503051158 | 17 | 12 | 3.2 | 9.7 | 0.00 | 0.00 | 0.00 | 91 | 1015.5 |
| 20260503050654 | 17 | 5 | 6.4 | 12.9 | 0.00 | 0.00 | 0.00 | 91 | 1015.7 |
| 20260503050151 | 18 | 13 | 3.2 | 8.0 | 0.00 | 0.00 | 0.00 | 91 | 1015.4 |
| 20260503045649 | 18 | 5 | 11.3 | 12.9 | 0.00 | 0.00 | 0.00 | 91 | 1015.4 |
| 20260503045146 | 18 | 5 | 6.4 | 8.0 | 0.00 | 0.00 | 0.00 | 90 | 1015.5 |
| 20260503044642 | 18 | 10 | 1.6 | 8.0 | 0.00 | 0.00 | 0.00 | 90 | 1015.4 |
| 20260503044140 | 18 | 20 | 8.0 | 9.7 | 0.00 | 0.00 | 0.00 | 90 | 1015.4 |
| 20260503043637 | 18 | 0 | 9.7 | 16.1 | 0.00 | 0.00 | 0.00 | 89 | 1015.5 |
| 20260503043134 | 18 | 32 | 11.3 | 14.5 | 0.00 | 0.00 | 0.00 | 89 | 1015.4 |
| 20260503042630 | 18 | 4 | 12.9 | 16.1 | 0.00 | 0.00 | 0.00 | 89 | 1015.3 |
| 20260503042126 | 18 | 21 | 6.4 | 11.3 | 0.00 | 0.00 | 0.00 | 89 | 1015.3 |
| 20260503041623 | 18 | 359 | 8.0 | 8.0 | 0.00 | 0.00 | 0.00 | 89 | 1015.0 |
| 20260503041121 | 18 | 5 | 8.0 | 12.9 | 0.00 | 0.00 | 0.00 | 89 | 1015.1 |
| 20260503040618 | 18 | 1 | 12.9 | 16.1 | 0.00 | 0.00 | 0.00 | 89 | 1015.1 |
| 20260503040115 | 18 | 7 | 9.7 | 16.1 | 0.00 | 0.00 | 0.00 | 89 | 1015.2 |
| 20260503035611 | 18 | 4 | 9.7 | 12.9 | 0.00 | 1.02 | 1.02 | 89 | 1015.1 |
| 20260503035109 | 18 | 1 | 4.8 | 8.0 | 0.00 | 1.02 | 1.02 | 89 | 1015.2 |
| 20260503034606 | 18 | 0 | 14.5 | 19.3 | 0.00 | 1.02 | 1.02 | 89 | 1014.8 |
| 20260503034104 | 18 | 337 | 6.4 | 16.1 | 0.00 | 1.02 | 1.02 | 91 | 1015.0 |
| 20260503033600 | 19 | 0 | 3.2 | 12.9 | 0.00 | 1.02 | 1.02 | 92 | 1014.5 |
| 20260503033058 | 19 | 20 | 6.4 | 14.5 | 0.00 | 1.02 | 1.02 | 92 | 1014.7 |
| 20260503032556 | 19 | 6 | 8.0 | 20.9 | 0.00 | 1.02 | 1.02 | 92 | 1014.5 |
| 20260503032054 | 19 | 2 | 9.7 | 24.1 | 0.00 | 1.02 | 1.02 | 93 | 1014.2 |
| 20260503031552 | 20 | 359 | 17.7 | 20.9 | 0.00 | 1.02 | 1.02 | 93 | 1014.3 |
| 20260503031049 | 20 | 0 | 17.7 | 25.7 | 0.00 | 1.02 | 1.02 | 92 | 1014.3 |
| 20260503030544 | 20 | 23 | 14.5 | 16.1 | 0.00 | 1.02 | 1.02 | 92 | 1014.2 |
| 20260503030042 | 20 | 349 | 9.7 | 22.5 | 0.00 | 1.02 | 1.02 | 92 | 1014.1 |
| 20260503025539 | 20 | 3 | 11.3 | 20.9 | 0.00 | 1.02 | 1.02 | 91 | 1014.3 |
| 20260503025037 | 20 | 351 | 16.1 | 22.5 | 0.00 | 1.02 | 1.02 | 90 | 1014.1 |
| 20260503024532 | 21 | 1 | 14.5 | 19.3 | 0.00 | 1.02 | 1.02 | 90 | 1013.9 |
| 20260503024030 | 21 | 358 | 8.0 | 16.1 | 0.00 | 1.02 | 1.02 | 89 | 1013.7 |
| 20260503023526 | 21 | 0 | 9.7 | 16.1 | 0.00 | 1.02 | 1.02 | 89 | 1013.6 |
| 20260503023024 | 21 | 30 | 11.3 | 19.3 | 0.00 | 1.02 | 1.02 | 88 | 1013.5 |
| 20260503022520 | 21 | 350 | 8.0 | 12.9 | 0.00 | 1.02 | 1.02 | 88 | 1013.4 |
| 20260503022015 | 21 | 6 | 8.0 | 9.7 | 0.00 | 1.02 | 1.02 | 88 | 1013.3 |
| 20260503021512 | 21 | 2 | 9.7 | 12.9 | 0.00 | 1.02 | 1.02 | 88 | 1013.5 |
| 20260503021009 | 21 | 4 | 9.7 | 11.3 | 0.00 | 1.02 | 1.02 | 89 | 1013.4 |
| 20260503020506 | 21 | 350 | 8.0 | 9.7 | 0.00 | 1.02 | 1.02 | 89 | 1013.4 |
| 20260503020002 | 21 | 10 | 3.2 | 4.8 | 0.00 | 1.02 | 1.02 | 89 | 1013.0 |
| 20260503015459 | 22 | 354 | 4.8 | 8.0 | 0.00 | 1.02 | 1.02 | 89 | 1013.0 |
| 20260503014956 | 22 | 337 | 4.8 | 9.7 | 0.00 | 1.02 | 1.02 | 88 | 1013.1 |
| 20260503014452 | 22 | 316 | 6.4 | 11.3 | 0.00 | 1.02 | 1.02 | 88 | 1012.9 |
| 20260503013950 | 22 | 346 | 4.8 | 9.7 | 0.00 | 1.02 | 1.02 | 88 | 1012.5 |
| 20260503013447 | 22 | 303 | 6.4 | 9.7 | 0.00 | 1.02 | 1.02 | 88 | 1012.4 |
| 20260503012944 | 22 | 320 | 6.4 | 9.7 | 0.00 | 1.02 | 1.02 | 88 | 1012.3 |
| 20260503012443 | 22 | 316 | 8.0 | 11.3 | 0.00 | 1.02 | 1.02 | 88 | 1012.3 |
| 20260503011938 | 22 | 273 | 4.8 | 8.0 | 0.00 | 1.02 | 1.02 | 89 | 1012.1 |
| 20260503011435 | 22 | 326 | 6.4 | 14.5 | 0.00 | 1.02 | 1.02 | 89 | 1012.0 |
| 20260503010932 | 22 | 324 | 9.7 | 11.3 | 0.00 | 1.02 | 1.02 | 89 | 1011.7 |
| 20260503010429 | 22 | 302 | 8.0 | 12.9 | 0.00 | 1.02 | 1.02 | 89 | 1011.9 |
| 20260503005926 | 22 | 313 | 6.4 | 16.1 | 0.00 | 1.02 | 1.02 | 88 | 1011.9 |
| 20260503005423 | 22 | 340 | 8.0 | 20.9 | 0.00 | 1.02 | 1.02 | 88 | 1011.7 |
| 20260503004920 | 22 | 336 | 8.0 | 16.1 | 0.00 | 1.02 | 1.02 | 88 | 1011.5 |
| 20260503004418 | 22 | 308 | 3.2 | 12.9 | 0.00 | 1.02 | 1.02 | 89 | 1011.6 |
| 20260503003915 | 22 | 46 | 3.2 | 9.7 | 0.00 | 1.02 | 1.02 | 90 | 1011.5 |
| 20260503003411 | 22 | 326 | 4.8 | 8.0 | 0.00 | 1.02 | 1.02 | 92 | 1011.4 |
| 20260503002908 | 22 | 339 | 4.8 | 12.9 | 0.00 | 1.02 | 1.02 | 95 | 1011.4 |
| 20260503002406 | 22 | 298 | 6.4 | 8.0 | 0.00 | 1.02 | 1.02 | 97 | 1011.6 |
| 20260503001902 | 22 | 303 | 1.6 | 4.8 | 0.00 | 1.02 | 1.02 | 97 | 1011.2 |
| 20260503001358 | 22 | 337 | 1.6 | 3.2 | 0.00 | 1.02 | 1.02 | 97 | 1011.2 |
| 20260503000856 | 22 | 333 | 3.2 | 4.8 | 0.00 | 1.02 | 1.02 | 97 | 1011.3 |
| 20260503000353 | 22 | 299 | 0.0 | 3.2 | 0.00 | 1.02 | 1.02 | 97 | 1011.3 |
| 20260502235850 | 22 | 269 | 0.0 | 1.6 | 0.00 | 1.02 | 1.02 | 97 | 1011.2 |
| 20260502235347 | 22 | 177 | 0.0 | 1.6 | 0.00 | 1.02 | 1.02 | 97 | 1010.9 |
| 20260502234844 | 22 | 180 | 1.6 | 3.2 | 0.00 | 1.02 | 1.02 | 97 | 1011.0 |
| 20260502234341 | 22 | 230 | 3.2 | 4.8 | 0.00 | 1.02 | 1.02 | 97 | 1011.0 |
| 20260502233838 | 22 | 163 | 3.2 | 6.4 | 0.00 | 1.02 | 1.02 | 98 | 1010.9 |
| 20260502233333 | 22 | 223 | 1.6 | 4.8 | 0.00 | 1.02 | 1.02 | 98 | 1011.0 |
| 20260502232831 | 22 | 207 | 4.8 | 6.4 | 0.00 | 1.02 | 1.02 | 97 | 1011.1 |
| 20260502232327 | 22 | 195 | 4.8 | 6.4 | 0.00 | 1.02 | 1.02 | 97 | 1011.0 |
| 20260502231824 | 22 | 196 | 8.0 | 11.3 | 0.00 | 1.02 | 1.02 | 97 | 1011.1 |
| 20260502231321 | 22 | 194 | 9.7 | 11.3 | 0.00 | 1.02 | 1.02 | 98 | 1010.9 |
| 20260502230820 | 22 | 193 | 6.4 | 9.7 | 0.00 | 1.02 | 1.02 | 98 | 1010.9 |
| 20260502230317 | 22 | 193 | 8.0 | 9.7 | 0.00 | 1.02 | 1.02 | 98 | 1011.1 |
| 20260502225814 | 22 | 207 | 9.7 | 11.3 | 0.00 | 1.02 | 1.02 | 98 | 1010.9 |
| 20260502225310 | 22 | 183 | 4.8 | 8.0 | 0.00 | 1.02 | 1.02 | 98 | 1010.6 |
| 20260502224807 | 21 | 188 | 4.8 | 9.7 | 0.00 | 1.02 | 1.02 | 98 | 1010.4 |
| 20260502224304 | 21 | 169 | 3.2 | 11.3 | 0.00 | 1.02 | 1.02 | 98 | 1010.5 |
| 20260502223801 | 21 | 183 | 8.0 | 9.7 | 0.00 | 1.02 | 1.02 | 98 | 1010.4 |
| 20260502223259 | 21 | 181 | 11.3 | 11.3 | 0.00 | 1.02 | 1.02 | 99 | 1010.5 |
| 20260502222757 | 21 | 186 | 4.8 | 8.0 | 0.00 | 1.02 | 1.02 | 99 | 1010.6 |
| 20260502222254 | 21 | 224 | 4.8 | 8.0 | 0.00 | 1.02 | 1.02 | 99 | 1010.7 |
| 20260502221749 | 21 | 182 | 9.7 | 12.9 | 0.00 | 1.02 | 1.02 | 99 | 1010.8 |
| 20260502221246 | 21 | 193 | 4.8 | 14.5 | 0.00 | 1.02 | 1.02 | 99 | 1010.8 |
| 20260502220743 | 21 | 176 | 9.7 | 17.7 | 0.00 | 1.02 | 1.02 | 99 | 1010.8 |
| 20260502220238 | 21 | 147 | 4.8 | 17.7 | 0.00 | 1.02 | 1.02 | 99 | 1011.1 |
| 20260502215735 | 21 | 172 | 8.0 | 12.9 | 0.00 | 1.02 | 1.02 | 99 | 1010.8 |
| 20260502215233 | 21 | 180 | 11.3 | 16.1 | 0.00 | 1.02 | 1.02 | 99 | 1010.8 |
| 20260502214730 | 21 | 199 | 9.7 | 11.3 | 0.00 | 1.02 | 1.02 | 99 | 1010.6 |
| 20260502214227 | 21 | 186 | 6.4 | 9.7 | 0.00 | 1.02 | 1.02 | 99 | 1010.4 |
| 20260502213724 | 21 | 171 | 6.4 | 8.0 | 0.00 | 1.02 | 1.02 | 99 | 1010.2 |
| 20260502213222 | 21 | 185 | 6.4 | 8.0 | 0.00 | 1.02 | 1.02 | 99 | 1010.2 |
| 20260502212720 | 21 | 172 | 6.4 | 8.0 | 0.00 | 1.02 | 1.02 | 99 | 1009.8 |
| 20260502212217 | 22 | 131 | 0.0 | 3.2 | 0.00 | 1.02 | 1.02 | 99 | 1009.7 |
| 20260502211714 | 21 | 68 | 0.0 | 3.2 | 0.00 | 1.02 | 1.02 | 99 | 1009.3 |
| 20260502211211 | 21 | 356 | 3.2 | 3.2 | 0.00 | 1.02 | 1.02 | 99 | 1009.8 |
| 20260502210708 | 21 | 310 | 0.0 | 4.8 | 0.00 | 1.02 | 1.02 | 99 | 1009.9 |
| 20260502210205 | 21 | 279 | 3.2 | 3.2 | 0.00 | 1.02 | 1.02 | 99 | 1010.1 |
| 20260502205702 | 21 | 200 | 3.2 | 4.8 | 0.00 | 1.02 | 1.02 | 99 | 1009.9 |
| 20260502205158 | 21 | 219 | 0.0 | 8.0 | 0.00 | 1.02 | 1.02 | 99 | 1009.9 |
| 20260502204655 | 21 | 196 | 0.0 | 8.0 | 0.00 | 1.02 | 1.02 | 99 | 1010.0 |
| 20260502204153 | 21 | 263 | 4.8 | 6.4 | 0.00 | 1.02 | 1.02 | 99 | 1010.5 |
| 20260502203650 | 21 | 208 | 11.3 | 14.5 | 0.00 | 1.02 | 1.02 | 99 | 1010.2 |
| 20260502203148 | 21 | 223 | 1.6 | 4.8 | 0.00 | 1.02 | 1.02 | 99 | 1010.6 |
| 20260502202642 | 21 | 201 | 4.8 | 9.7 | 0.00 | 1.02 | 1.02 | 99 | 1010.8 |
| 20260502202141 | 21 | 269 | 0.0 | 6.4 | 0.00 | 1.02 | 1.02 | 99 | 1010.7 |
| 20260502201637 | 21 | 186 | 12.9 | 12.9 | 0.00 | 1.02 | 1.02 | 99 | 1010.9 |
| 20260502201134 | 21 | 207 | 12.9 | 17.7 | 0.00 | 1.02 | 1.02 | 99 | 1010.5 |
| 20260502200624 | 21 | 199 | 9.7 | 11.3 | 0.00 | 1.02 | 1.02 | 99 | 1010.4 |
| 20260502200121 | 21 | 155 | 11.3 | 12.9 | 0.00 | 1.02 | 1.02 | 99 | 1010.5 |
| 20260502195620 | 21 | 184 | 12.9 | 12.9 | 0.00 | 1.02 | 1.02 | 99 | 1010.2 |
| 20260502195114 | 21 | 157 | 9.7 | 12.9 | 0.00 | 1.02 | 1.02 | 99 | 1010.7 |
| 20260502194612 | 21 | 165 | 9.7 | 12.9 | 0.00 | 1.02 | 1.02 | 99 | 1010.7 |
| 20260502194108 | 21 | 167 | 6.4 | 8.0 | 0.05 | 1.02 | 1.02 | 99 | 1010.4 |
| 20260502193605 | 21 | 230 | 3.2 | 12.9 | 0.13 | 1.02 | 1.02 | 99 | 1010.5 |
| 20260502193056 | 20 | 295 | 6.4 | 6.4 | 0.23 | 0.99 | 0.99 | 99 | 1010.1 |
| 20260502192552 | 20 | 149 | 0.0 | 3.2 | 0.43 | 0.99 | 0.99 | 99 | 1010.3 |
| 20260502192049 | 20 | 175 | 0.0 | 8.0 | 0.43 | 0.94 | 0.94 | 99 | 1010.7 |
| 20260502191541 | 20 | 186 | 9.7 | 11.3 | 0.43 | 0.91 | 0.91 | 99 | 1011.5 |
| 20260502191038 | 20 | 199 | 6.4 | 9.7 | 0.30 | 0.86 | 0.86 | 99 | 1011.9 |
| 20260502190536 | 20 | 242 | 3.2 | 12.9 | 0.36 | 0.86 | 0.86 | 99 | 1012.1 |
| 20260502190033 | 20 | 201 | 4.8 | 12.9 | 0.30 | 0.81 | 0.81 | 99 | 1012.3 |
| 20260502185527 | 20 | 212 | 16.1 | 16.1 | 0.18 | 0.79 | 0.79 | 99 | 1012.1 |
| 20260502185025 | 20 | 247 | 4.8 | 11.3 | 0.30 | 0.76 | 0.76 | 99 | 1012.1 |
| 20260502184520 | 20 | 213 | 8.0 | 24.1 | 0.23 | 0.74 | 0.74 | 99 | 1011.8 |
| 20260502184016 | 20 | 241 | 8.0 | 19.3 | 0.13 | 0.71 | 0.71 | 99 | 1012.0 |
| 20260502183513 | 20 | 213 | 24.1 | 27.4 | 0.13 | 0.71 | 0.71 | 99 | 1012.7 |
| 20260502183009 | 20 | 208 | 14.5 | 20.9 | 0.13 | 0.71 | 0.71 | 99 | 1011.7 |
| 20260502182503 | 20 | 250 | 16.1 | 24.1 | 0.00 | 0.69 | 0.69 | 99 | 1012.1 |
| 20260502182000 | 20 | 210 | 8.0 | 9.7 | 0.18 | 0.69 | 0.69 | 99 | 1012.6 |
| 20260502181458 | 20 | 245 | 22.5 | 22.5 | 1.37 | 0.69 | 0.69 | 99 | 1012.4 |
| 20260502180957 | 19 | 206 | 6.4 | 17.7 | 1.50 | 0.61 | 0.61 | 99 | 1012.8 |
| 20260502180453 | 19 | 257 | 6.4 | 17.7 | 1.85 | 0.46 | 0.46 | 99 | 1012.5 |
| 20260502170413 | 27 | 229 | 20.9 | 24.1 | 0.00 | 0.00 | 0.00 | 79 | 1011.8 |
| 20260502163855 | 27 | 199 | 19.3 | 37.0 | 0.00 | 0.00 | 0.00 | 79 | 1011.6 |
| 20260502163352 | 27 | 273 | 8.0 | 24.1 | 0.00 | 0.00 | 0.00 | 77 | 1011.6 |
| 20260502162850 | 27 | 220 | 27.4 | 32.2 | 0.00 | 0.00 | 0.00 | 77 | 1011.6 |
| 20260502162346 | 27 | 231 | 19.3 | 27.4 | 0.00 | 0.00 | 0.00 | 77 | 1011.7 |
| 20260502161844 | 27 | 217 | 16.1 | 37.0 | 0.00 | 0.00 | 0.00 | 79 | 1011.7 |
| 20260502161339 | 27 | 236 | 14.5 | 30.6 | 0.00 | 0.00 | 0.00 | 78 | 1011.4 |
| 20260502160838 | 27 | 202 | 33.8 | 38.6 | 0.00 | 0.00 | 0.00 | 78 | 1011.5 |
| 20260502160336 | 27 | 219 | 30.6 | 43.5 | 0.00 | 0.00 | 0.00 | 79 | 1011.4 |
| 20260502152311 | 28 | 224 | 14.5 | 37.0 | 0.00 | 0.00 | 0.00 | 71 | 1011.5 |
| 20260502151808 | 28 | 278 | 12.9 | 30.6 | 0.00 | 0.00 | 0.00 | 71 | 1011.8 |
| 20260502151305 | 28 | 206 | 27.4 | 43.5 | 0.00 | 0.00 | 0.00 | 70 | 1011.5 |
| 20260502150803 | 28 | 226 | 9.7 | 20.9 | 0.00 | 0.00 | 0.00 | 71 | 1011.5 |
| 20260502150259 | 28 | 216 | 16.1 | 27.4 | 0.00 | 0.00 | 0.00 | 71 | 1011.3 |